createdAt,value
2023-05-24T00:01:19.839Z,100.00
2023-05-24T00:03:51.788Z,100.00
2023-05-24T00:06:23.365Z,100.00
2023-05-24T00:08:55.289Z,100.00
2023-05-24T00:11:26.774Z,100.00
2023-05-24T00:13:58.276Z,100.00
2023-05-24T00:16:29.852Z,100.00
2023-05-24T00:19:01.638Z,100.00
2023-05-24T00:21:33.138Z,100.00
2023-05-24T00:24:04.973Z,100.00
2023-05-24T00:26:36.473Z,100.00
2023-05-24T00:29:07.963Z,100.00
2023-05-24T00:31:39.563Z,100.00
2023-05-24T00:34:11.123Z,100.00
2023-05-24T00:36:42.966Z,100.00
2023-05-24T00:39:14.447Z,100.00
2023-05-24T00:41:45.963Z,100.00
2023-05-24T00:44:17.477Z,100.00
2023-05-24T00:46:49.138Z,100.00
2023-05-24T00:49:20.627Z,100.00
2023-05-24T00:51:52.520Z,100.00
2023-05-24T00:54:24.004Z,100.00
2023-05-24T00:56:55.583Z,100.00
2023-05-24T00:59:27.326Z,100.00
2023-05-24T01:01:58.970Z,100.00
2023-05-24T01:04:30.987Z,100.00
2023-05-24T01:07:02.514Z,100.00
2023-05-24T01:09:34.015Z,100.00
2023-05-24T01:12:05.504Z,100.00
2023-05-24T01:14:37.007Z,100.00
2023-05-24T01:17:08.489Z,100.00
2023-05-24T01:19:39.990Z,100.00
2023-05-24T01:22:11.475Z,100.00
2023-05-24T01:24:43.303Z,100.00
2023-05-24T01:27:14.966Z,100.00
2023-05-24T01:29:46.834Z,100.00
2023-05-24T01:32:18.547Z,100.00
2023-05-24T01:34:50.022Z,100.00
2023-05-24T01:37:21.822Z,100.00
2023-05-24T01:39:53.318Z,100.00
2023-05-24T01:42:25.194Z,100.00
2023-05-24T01:44:56.731Z,100.00
2023-05-24T01:47:28.288Z,100.00
2023-05-24T01:49:59.825Z,100.00
2023-05-24T01:52:31.646Z,100.00
2023-05-24T01:55:03.581Z,100.00
2023-05-24T01:57:35.092Z,100.00
2023-05-24T02:00:06.896Z,100.00
2023-05-24T02:02:38.428Z,100.00
2023-05-24T02:05:10.326Z,100.00
2023-05-24T02:07:41.805Z,100.00
2023-05-24T02:10:13.701Z,100.00
2023-05-24T02:12:45.184Z,100.00
2023-05-24T02:15:16.871Z,100.00
2023-05-24T02:17:48.499Z,100.00
2023-05-24T02:20:20.486Z,100.00
2023-05-24T02:22:52.038Z,100.00
2023-05-24T02:25:24.062Z,100.00
2023-05-24T02:27:55.892Z,100.00
2023-05-24T02:30:27.783Z,100.00
2023-05-24T02:32:59.724Z,100.00
2023-05-24T02:35:31.247Z,100.00
2023-05-24T02:38:03.072Z,100.00
2023-05-24T02:40:34.548Z,100.00
2023-05-24T02:43:06.437Z,100.00
2023-05-24T02:45:37.928Z,100.00
2023-05-24T02:48:09.747Z,100.00
2023-05-24T02:50:41.370Z,100.00
2023-05-24T02:53:13.032Z,100.00
2023-05-24T02:55:44.507Z,100.00
2023-05-24T02:58:16.230Z,100.00
2023-05-24T03:00:47.720Z,100.00
2023-05-24T03:03:19.286Z,100.00
2023-05-24T03:05:51.235Z,100.00
2023-05-24T03:08:22.716Z,100.00
2023-05-24T03:10:54.206Z,100.00
2023-05-24T03:13:25.688Z,100.00
2023-05-24T03:15:57.508Z,100.00
2023-05-24T03:18:29.034Z,100.00
2023-05-24T03:21:00.882Z,100.00
2023-05-24T03:23:32.386Z,100.00
2023-05-24T03:26:03.896Z,100.00
2023-05-24T03:28:35.397Z,100.00
2023-05-24T03:31:07.405Z,100.00
2023-05-24T03:33:38.885Z,100.00
2023-05-24T03:36:10.364Z,100.00
2023-05-24T03:38:42.242Z,100.00
2023-05-24T03:41:13.714Z,100.00
2023-05-24T03:43:45.226Z,100.00
2023-05-24T03:46:16.782Z,100.00
2023-05-24T03:48:48.639Z,100.00
2023-05-24T03:51:20.115Z,100.00
2023-05-24T03:53:51.884Z,100.00
2023-05-24T03:56:23.369Z,100.00
2023-05-24T03:58:55.138Z,99.20
2023-05-24T04:01:33.246Z,99.03
2023-05-24T04:04:06.085Z,98.96
2023-05-24T04:06:37.585Z,99.57
2023-05-24T04:09:09.314Z,98.87
2023-05-24T04:11:40.791Z,99.56
2023-05-24T04:14:12.303Z,97.85
2023-05-24T04:16:43.825Z,97.65
2023-05-24T04:19:15.694Z,97.20
2023-05-24T04:21:47.607Z,97.91
2023-05-24T04:24:19.713Z,96.91
2023-05-24T04:26:51.878Z,95.70
2023-05-24T04:29:23.516Z,95.41
2023-05-24T04:31:55.402Z,94.08
2023-05-24T04:34:26.958Z,93.56
2023-05-24T04:36:58.839Z,94.98
2023-05-24T04:39:30.376Z,92.95
2023-05-24T04:42:02.200Z,92.78
2023-05-24T04:44:33.699Z,93.00
2023-05-24T04:47:05.629Z,92.21
2023-05-24T04:49:37.151Z,93.80
2023-05-24T04:52:08.863Z,92.30
2023-05-24T04:54:40.402Z,91.85
2023-05-24T04:57:12.219Z,91.02
2023-05-24T04:59:44.003Z,89.35
2023-05-24T05:02:15.525Z,88.89
2023-05-24T05:04:47.111Z,89.86
2023-05-24T05:07:18.595Z,89.48
2023-05-24T05:09:50.262Z,89.48
2023-05-24T05:12:21.751Z,88.77
2023-05-24T05:14:53.585Z,89.04
2023-05-24T05:17:25.065Z,89.73
2023-05-24T05:19:56.818Z,88.46
2023-05-24T05:22:30.100Z,89.29
2023-05-24T05:25:02.789Z,86.97
2023-05-24T05:27:34.335Z,86.11
2023-05-24T05:30:06.121Z,85.94
2023-05-24T05:32:37.836Z,86.26
2023-05-24T05:35:09.429Z,85.68
2023-05-24T05:37:40.936Z,84.86
2023-05-24T05:40:12.415Z,84.77
2023-05-24T05:42:43.926Z,83.60
2023-05-24T05:45:15.464Z,83.27
2023-05-24T05:47:47.293Z,83.14
2023-05-24T05:50:18.842Z,83.93
2023-05-24T05:52:50.824Z,84.91
2023-05-24T05:55:22.399Z,83.85
2023-05-24T05:57:54.240Z,83.59
2023-05-24T06:00:25.741Z,83.29
2023-05-24T06:02:57.627Z,83.49
2023-05-24T06:05:29.589Z,82.85
2023-05-24T06:08:01.064Z,83.08
2023-05-24T06:10:33.005Z,82.04
2023-05-24T06:13:04.514Z,82.86
2023-05-24T06:15:36.026Z,81.51
2023-05-24T06:18:07.536Z,79.78
2023-05-24T06:20:39.094Z,79.11
2023-05-24T06:23:10.609Z,78.34
2023-05-24T06:25:42.484Z,77.76
2023-05-24T06:28:13.984Z,78.35
2023-05-24T06:30:46.362Z,77.01
2023-05-24T06:33:18.265Z,77.78
2023-05-24T06:35:49.790Z,76.30
2023-05-24T06:38:21.308Z,76.27
2023-05-24T06:40:52.796Z,78.47
2023-05-24T06:43:24.712Z,78.97
2023-05-24T06:45:56.203Z,80.47
2023-05-24T06:48:28.074Z,81.32
2023-05-24T06:50:59.776Z,81.32
2023-05-24T06:53:31.741Z,81.34
2023-05-24T06:56:03.234Z,81.08
2023-05-24T06:58:34.749Z,80.39
2023-05-24T07:01:06.749Z,78.58
2023-05-24T07:03:38.292Z,77.32
2023-05-24T07:06:09.821Z,79.24
2023-05-24T07:08:41.325Z,79.04
2023-05-24T07:11:13.046Z,79.08
2023-05-24T07:13:44.556Z,79.21
2023-05-24T07:16:16.607Z,77.42
2023-05-24T07:18:48.127Z,78.02
2023-05-24T07:21:19.876Z,78.05
2023-05-24T07:23:51.370Z,78.11
2023-05-24T07:26:23.405Z,78.61
2023-05-24T07:28:54.906Z,79.02
2023-05-24T07:31:26.733Z,79.29
2023-05-24T07:33:58.262Z,77.45
2023-05-24T07:36:31.603Z,78.63
2023-05-24T07:39:06.030Z,77.37
2023-05-24T07:41:37.541Z,75.75
2023-05-24T07:44:09.243Z,73.31
2023-05-24T07:46:40.771Z,75.07
2023-05-24T07:49:12.588Z,76.17
2023-05-24T07:51:44.121Z,73.20
2023-05-24T07:54:15.936Z,74.34
2023-05-24T07:56:47.428Z,73.44
2023-05-24T07:59:19.203Z,72.24
2023-05-24T08:01:50.692Z,72.63
2023-05-24T08:04:22.199Z,74.45
2023-05-24T08:06:54.141Z,73.87
2023-05-24T08:09:26.159Z,73.34
2023-05-24T08:11:57.669Z,73.66
2023-05-24T08:14:29.145Z,74.70
2023-05-24T08:17:01.019Z,74.25
2023-05-24T08:19:32.562Z,75.30
2023-05-24T08:22:04.263Z,75.37
2023-05-24T08:24:35.750Z,75.18
2023-05-24T08:27:07.689Z,74.16
2023-05-24T08:29:39.187Z,72.82
2023-05-24T08:32:10.724Z,74.02
2023-05-24T08:34:42.318Z,72.69
2023-05-24T08:37:15.539Z,73.46
2023-05-24T08:39:48.032Z,72.87
2023-05-24T08:42:19.776Z,72.11
2023-05-24T08:44:51.464Z,70.90
2023-05-24T08:47:22.981Z,70.15
2023-05-24T08:49:54.503Z,67.88
2023-05-24T08:52:25.986Z,66.52
2023-05-24T08:54:57.501Z,65.72
2023-05-24T08:57:29.004Z,66.73
2023-05-24T09:00:00.528Z,65.06
2023-05-24T09:02:32.029Z,66.61
2023-05-24T09:05:04.289Z,63.35
2023-05-24T09:07:35.782Z,63.71
2023-05-24T09:10:07.605Z,61.27
2023-05-24T09:12:39.589Z,61.15
2023-05-24T09:15:11.358Z,61.43
2023-05-24T09:17:43.323Z,60.64
2023-05-24T09:20:14.978Z,60.72
2023-05-24T09:22:46.642Z,62.42
2023-05-24T09:25:18.135Z,63.28
2023-05-24T09:27:50.084Z,60.68
2023-05-24T09:30:21.585Z,59.34
2023-05-24T09:32:53.197Z,58.94
2023-05-24T09:35:24.715Z,60.54
2023-05-24T09:37:56.756Z,59.42
2023-05-24T09:40:28.558Z,58.38
2023-05-24T09:43:00.032Z,58.34
2023-05-24T09:45:31.896Z,56.98
2023-05-24T09:48:03.433Z,56.44
2023-05-24T09:50:34.987Z,55.60
2023-05-24T09:53:06.465Z,57.27
2023-05-24T09:55:38.481Z,56.77
2023-05-24T09:58:09.990Z,58.95
2023-05-24T10:00:42.294Z,59.43
2023-05-24T10:03:14.326Z,61.74
2023-05-24T10:05:46.193Z,59.46
2023-05-24T10:08:18.138Z,60.04
2023-05-24T10:10:50.143Z,60.42
2023-05-24T10:13:21.820Z,59.48
2023-05-24T10:15:53.312Z,61.62
2023-05-24T10:18:25.157Z,61.23
2023-05-24T10:20:56.749Z,61.08
2023-05-24T10:23:28.788Z,59.76
2023-05-24T10:26:00.359Z,60.56
2023-05-24T10:28:32.341Z,59.68
2023-05-24T10:31:04.046Z,58.53
2023-05-24T10:33:35.669Z,55.94
2023-05-24T10:36:09.433Z,54.24
2023-05-24T10:38:41.349Z,54.66
2023-05-24T10:41:13.190Z,54.03
2023-05-24T10:43:53.459Z,56.15
2023-05-24T10:46:33.088Z,58.29
2023-05-24T10:49:04.675Z,58.61
2023-05-24T10:51:36.187Z,59.46
2023-05-24T10:54:09.062Z,59.78
2023-05-24T10:56:40.724Z,60.44
2023-05-24T10:59:12.234Z,60.22
2023-05-24T11:01:44.136Z,61.55
2023-05-24T11:04:15.683Z,60.28
2023-05-24T11:06:47.224Z,56.98
2023-05-24T11:09:18.993Z,58.41
2023-05-24T11:11:50.516Z,57.49
2023-05-24T11:14:22.038Z,56.76
2023-05-24T11:16:53.630Z,57.85
2023-05-24T11:19:25.202Z,57.76
2023-05-24T11:21:56.691Z,56.52
2023-05-24T11:24:28.534Z,52.03
2023-05-24T11:27:00.023Z,50.88
2023-05-24T11:29:31.919Z,51.59
2023-05-24T11:32:03.841Z,50.13
2023-05-24T11:34:35.664Z,48.83
2023-05-24T11:37:07.516Z,50.53
2023-05-24T11:39:39.009Z,47.78
2023-05-24T11:42:10.856Z,48.52
2023-05-24T11:44:42.702Z,47.60
2023-05-24T11:47:14.551Z,47.27
2023-05-24T11:49:46.508Z,48.07
2023-05-24T11:52:17.998Z,48.95
2023-05-24T11:54:49.888Z,49.22
2023-05-24T11:57:21.384Z,50.33
2023-05-24T11:59:52.883Z,49.49
2023-05-24T12:02:24.476Z,51.60
2023-05-24T12:04:56.497Z,52.23
2023-05-24T12:07:27.999Z,50.89
2023-05-24T12:09:59.811Z,49.25
2023-05-24T12:12:38.721Z,49.46
2023-05-24T12:15:17.300Z,49.34
2023-05-24T12:17:49.154Z,48.22
2023-05-24T12:20:20.736Z,46.73
2023-05-24T12:22:52.910Z,46.12
2023-05-24T12:25:24.415Z,43.76
2023-05-24T12:27:56.433Z,43.55
2023-05-24T12:30:27.936Z,43.87
2023-05-24T12:33:01.330Z,44.50
2023-05-24T12:35:32.873Z,46.61
2023-05-24T12:38:04.845Z,47.37
2023-05-24T12:40:36.341Z,48.28
2023-05-24T12:43:08.105Z,47.65
2023-05-24T12:45:39.617Z,49.07
2023-05-24T12:48:11.492Z,49.56
2023-05-24T12:50:43.662Z,50.91
2023-05-24T12:53:15.379Z,50.86
2023-05-24T12:55:46.895Z,50.55
2023-05-24T12:58:18.395Z,51.50
2023-05-24T13:00:50.023Z,51.42
2023-05-24T13:03:21.662Z,51.58
2023-05-24T13:05:53.723Z,50.43
2023-05-24T13:08:25.268Z,49.37
2023-05-24T13:10:56.933Z,48.26
2023-05-24T13:13:28.458Z,47.63
2023-05-24T13:16:00.242Z,46.90
2023-05-24T13:18:32.002Z,46.80
2023-05-24T13:21:03.491Z,46.77
2023-05-24T13:23:34.986Z,46.66
2023-05-24T13:26:06.503Z,46.16
2023-05-24T13:28:40.491Z,45.60
2023-05-24T13:31:17.333Z,46.83
2023-05-24T13:33:49.054Z,46.41
2023-05-24T13:36:20.526Z,46.59
2023-05-24T13:39:02.339Z,47.45
2023-05-24T13:41:44.349Z,46.71
2023-05-24T13:44:16.086Z,47.99
2023-05-24T13:46:47.986Z,47.29
2023-05-24T13:49:19.550Z,47.93
2023-05-24T13:51:51.427Z,47.58
2023-05-24T13:54:22.908Z,48.49
2023-05-24T13:56:54.748Z,49.47
2023-05-24T13:59:26.246Z,50.55
2023-05-24T14:01:57.991Z,52.26
2023-05-24T14:04:29.505Z,52.26
2023-05-24T14:07:01.550Z,52.34
2023-05-24T14:09:33.387Z,52.45
2023-05-24T14:12:05.234Z,51.52
2023-05-24T14:14:59.411Z,49.79
2023-05-24T14:17:28.214Z,44.96
2023-05-24T14:20:00.226Z,44.63
2023-05-24T14:22:31.790Z,43.28
2023-05-24T14:25:03.677Z,40.80
2023-05-24T14:27:35.154Z,41.86
2023-05-24T14:30:06.976Z,42.53
2023-05-24T14:32:38.523Z,41.64
2023-05-24T14:35:10.404Z,40.05
2023-05-24T14:37:42.246Z,38.93
2023-05-24T14:40:13.795Z,40.51
2023-05-24T14:42:45.372Z,40.54
2023-05-24T14:45:16.893Z,39.51
2023-05-24T14:47:48.772Z,40.33
2023-05-24T14:50:20.282Z,39.73
2023-05-24T14:52:53.718Z,38.77
2023-05-24T14:55:26.755Z,38.92
2023-05-24T14:57:58.613Z,39.41
2023-05-24T15:00:30.131Z,36.86
2023-05-24T15:03:01.971Z,37.16
2023-05-24T15:05:33.546Z,36.27
2023-05-24T15:08:05.222Z,36.69
2023-05-24T15:10:36.748Z,37.21
2023-05-24T15:13:08.268Z,36.94
2023-05-24T15:15:39.771Z,38.40
2023-05-24T15:18:11.265Z,36.40
2023-05-24T15:20:43.413Z,36.24
2023-05-24T15:23:15.191Z,37.07
2023-05-24T15:25:47.177Z,35.63
2023-05-24T15:28:18.761Z,36.80
2023-05-24T15:30:50.339Z,38.98
2023-05-24T15:33:21.914Z,40.91
2023-05-24T15:35:53.451Z,38.96
2023-05-24T15:38:25.260Z,39.32
2023-05-24T15:40:57.167Z,38.43
2023-05-24T15:43:28.909Z,38.35
2023-05-24T15:46:00.404Z,38.95
2023-05-24T15:48:32.320Z,39.40
2023-05-24T15:51:58.046Z,38.51
2023-05-24T15:53:55.280Z,38.52
2023-05-24T15:56:26.787Z,38.11
2023-05-24T15:58:58.309Z,39.12
2023-05-24T16:01:29.839Z,40.47
2023-05-24T16:04:01.428Z,39.89
2023-05-24T16:06:33.114Z,39.43
2023-05-24T16:09:04.636Z,40.95
2023-05-24T16:11:36.151Z,40.75
2023-05-24T16:14:07.639Z,42.75
2023-05-24T16:16:39.324Z,43.94
2023-05-24T16:19:10.850Z,44.56
2023-05-24T16:21:42.676Z,45.61
2023-05-24T16:24:14.211Z,46.62
2023-05-24T16:26:45.726Z,47.37
2023-05-24T16:29:17.222Z,49.31
2023-05-24T16:31:49.099Z,51.62
2023-05-24T16:34:20.665Z,51.96
2023-05-24T16:36:52.202Z,53.02
2023-05-24T16:39:23.700Z,52.79
2023-05-24T16:41:55.461Z,51.94
2023-05-24T16:44:26.966Z,51.79
2023-05-24T16:46:58.770Z,52.41
2023-05-24T16:49:30.646Z,53.03
2023-05-24T16:52:02.136Z,53.60
2023-05-24T16:54:33.643Z,53.27
2023-05-24T16:57:05.166Z,54.14
2023-05-24T16:59:36.691Z,54.80
2023-05-24T17:02:08.174Z,55.15
2023-05-24T17:04:39.709Z,56.14
2023-05-24T17:07:11.215Z,55.78
2023-05-24T17:09:42.994Z,56.59
2023-05-24T17:12:14.488Z,57.08
2023-05-24T17:14:46.326Z,56.53
2023-05-24T17:17:18.149Z,56.96
2023-05-24T17:19:49.695Z,58.09
2023-05-24T17:22:21.594Z,57.17
2023-05-24T17:24:53.092Z,59.20
2023-05-24T17:27:24.940Z,58.37
2023-05-24T17:29:56.436Z,58.39
2023-05-24T17:32:28.140Z,59.00
2023-05-24T17:34:59.674Z,59.55
2023-05-24T17:37:31.180Z,60.32
2023-05-24T17:40:02.665Z,61.13
2023-05-24T17:42:34.148Z,60.74
2023-05-24T17:45:05.689Z,60.58
2023-05-24T17:47:37.211Z,60.75
2023-05-24T17:50:09.199Z,60.56
2023-05-24T17:52:40.696Z,60.85
2023-05-24T17:55:12.215Z,61.21
2023-05-24T17:57:43.706Z,61.71
2023-05-24T18:00:15.420Z,62.51
2023-05-24T18:02:47.582Z,63.19
2023-05-24T18:05:19.871Z,63.38
2023-05-24T18:07:51.404Z,63.57
2023-05-24T18:10:23.331Z,63.99
2023-05-24T18:12:54.864Z,64.24
2023-05-24T18:15:26.715Z,63.99
2023-05-24T18:17:58.247Z,64.25
2023-05-24T18:20:30.007Z,65.26
2023-05-24T18:23:01.915Z,65.51
2023-05-24T18:25:33.691Z,65.69
2023-05-24T18:28:05.490Z,66.96
2023-05-24T18:30:37.001Z,66.92
2023-05-24T18:33:08.931Z,66.97
2023-05-24T18:35:40.716Z,67.36
2023-05-24T18:38:12.642Z,67.95
2023-05-24T18:40:44.153Z,68.43
2023-05-24T18:43:16.007Z,69.22
2023-05-24T18:45:47.523Z,70.09
2023-05-24T18:48:19.425Z,71.03
2023-05-24T18:50:50.931Z,71.76
2023-05-24T18:53:22.753Z,72.51
2023-05-24T18:55:54.282Z,72.91
2023-05-24T18:58:25.767Z,73.45
2023-05-24T19:00:57.379Z,74.26
2023-05-24T19:03:28.974Z,75.46
2023-05-24T19:06:00.861Z,75.63
2023-05-24T19:08:32.390Z,76.50
2023-05-24T19:11:04.077Z,76.71
2023-05-24T19:13:35.645Z,77.57
2023-05-24T19:16:07.348Z,78.39
2023-05-24T19:18:38.929Z,78.57
2023-05-24T19:21:10.804Z,80.15
2023-05-24T19:23:42.424Z,80.37
2023-05-24T19:26:14.228Z,80.57
2023-05-24T19:28:45.795Z,80.63
2023-05-24T19:31:17.709Z,80.69
2023-05-24T19:34:00.100Z,83.58
2023-05-24T19:36:32.583Z,84.86
2023-05-24T19:39:04.094Z,84.77
2023-05-24T19:41:35.575Z,86.36
2023-05-24T19:44:07.293Z,86.63
2023-05-24T19:46:38.836Z,86.97
2023-05-24T19:49:10.401Z,87.37
2023-05-24T19:51:41.997Z,88.42
2023-05-24T19:54:13.660Z,89.02
2023-05-24T19:56:45.257Z,89.70
2023-05-24T19:59:17.203Z,89.74
2023-05-24T20:01:49.233Z,90.35
2023-05-24T20:04:20.871Z,91.15
2023-05-24T20:06:52.685Z,91.77
2023-05-24T20:09:24.179Z,92.06
2023-05-24T20:11:55.715Z,92.30
2023-05-24T20:14:27.218Z,93.25
2023-05-24T20:16:59.152Z,92.98
2023-05-24T20:19:30.670Z,93.62
2023-05-24T20:22:02.431Z,95.11
2023-05-24T20:24:33.927Z,94.99
2023-05-24T20:27:05.449Z,94.76
2023-05-24T20:29:36.952Z,95.00
2023-05-24T20:32:08.677Z,94.86
2023-05-24T20:34:40.233Z,94.51
2023-05-24T20:37:11.752Z,94.42
2023-05-24T20:39:43.604Z,94.57
2023-05-24T20:42:15.110Z,95.34
2023-05-24T20:44:47.065Z,94.77
2023-05-24T20:47:18.572Z,95.30
2023-05-24T20:49:50.062Z,96.20
2023-05-24T20:52:21.554Z,96.48
2023-05-24T20:54:53.236Z,96.01
2023-05-24T20:57:25.171Z,96.80
2023-05-24T20:59:56.953Z,97.48
2023-05-24T21:02:28.875Z,97.98
2023-05-24T21:05:00.463Z,98.17
2023-05-24T21:07:32.098Z,97.86
2023-05-24T21:10:03.589Z,98.48
2023-05-24T21:12:35.117Z,98.74
2023-05-24T21:15:06.626Z,98.59
2023-05-24T21:17:38.185Z,98.98
2023-05-24T21:20:09.719Z,98.99
2023-05-24T21:22:41.260Z,99.86
2023-05-24T21:25:12.781Z,100.00
2023-05-24T21:27:44.648Z,99.67
2023-05-24T21:30:16.505Z,100.00
2023-05-24T21:32:48.483Z,100.00
2023-05-24T21:35:20.044Z,100.00
2023-05-24T21:37:51.513Z,100.00
2023-05-24T21:40:23.252Z,100.00
2023-05-24T21:42:54.740Z,100.00
2023-05-24T21:45:26.750Z,100.00
2023-05-24T21:47:58.311Z,100.00
2023-05-24T21:50:30.273Z,100.00
2023-05-24T21:53:01.765Z,100.00
2023-05-24T21:55:33.580Z,100.00
2023-05-24T21:58:05.095Z,100.00
2023-05-24T22:00:36.618Z,100.00
2023-05-24T22:03:08.561Z,100.00
2023-05-24T22:05:40.207Z,100.00
2023-05-24T22:08:12.242Z,100.00
2023-05-24T22:10:43.751Z,100.00
2023-05-24T22:13:15.617Z,100.00
2023-05-24T22:15:47.123Z,100.00
2023-05-24T22:18:19.014Z,100.00
2023-05-24T22:20:50.582Z,100.00
2023-05-24T22:23:22.581Z,100.00
2023-05-24T22:25:54.057Z,100.00
2023-05-24T22:28:25.858Z,100.00
2023-05-24T22:30:57.608Z,100.00
2023-05-24T22:33:29.428Z,100.00
2023-05-24T22:36:00.938Z,100.00
2023-05-24T22:38:32.444Z,100.00
2023-05-24T22:41:04.264Z,100.00
2023-05-24T22:43:35.720Z,100.00
2023-05-24T22:46:10.541Z,100.00
2023-05-24T22:48:42.257Z,100.00
2023-05-24T22:51:14.067Z,100.00
2023-05-24T22:53:45.651Z,100.00
2023-05-24T22:56:17.445Z,100.00
2023-05-24T22:58:48.964Z,100.00
2023-05-24T23:01:20.877Z,100.00
2023-05-24T23:03:52.607Z,100.00
2023-05-24T23:06:24.155Z,100.00
2023-05-24T23:08:55.826Z,100.00
2023-05-24T23:11:27.305Z,100.00
2023-05-24T23:13:59.129Z,100.00
2023-05-24T23:16:30.643Z,100.00
2023-05-24T23:19:02.187Z,100.00
2023-05-24T23:21:33.678Z,100.00
2023-05-24T23:24:05.748Z,100.00
2023-05-24T23:26:37.257Z,100.00
2023-05-24T23:29:09.011Z,100.00
2023-05-24T23:31:40.716Z,100.00
2023-05-24T23:34:12.251Z,100.00
2023-05-24T23:36:44.094Z,100.00
2023-05-24T23:39:15.573Z,100.00
2023-05-24T23:41:47.515Z,100.00
2023-05-24T23:44:19.002Z,100.00
2023-05-24T23:46:50.902Z,100.00
2023-05-24T23:49:22.494Z,100.00
2023-05-24T23:51:54.347Z,100.00
2023-05-24T23:54:25.835Z,100.00
2023-05-24T23:56:57.668Z,100.00
2023-05-24T23:59:29.699Z,100.00
